Aviation Digital Data Service (ADDS)

Output produced by METARs form (0605 UTC 25 June 2018)
found at http://www.aviationweather.gov/adds/metars/
 
LLBG 250550Z 21004KT 140V280 9999 SCT030 27/19 Q1010 NOSIG
TAF LLBG 250501Z 2506/2606 VRB03KT 9999 SCT025 
     BECMG 2507/2509 30010KT FEW030 
     BECMG 2515/2517 35005KT SCT025 
     BECMG 2521/2523 VRB04KT TX31/2512Z TN23/2603Z
       
TAF LLET 250504Z 2506/2606 02018KT CAVOK 
     PROB40 2510/2516 02020G30KT 
     BECMG 2518/2520 36012KT TX39/2512Z TN27/2603Z
       
LLHA 250550Z 34005KT 300V010 9999 SCT025 27/19 Q1010
TAF LLHA 250504Z 2506/2606 VRB03KT 9999 SCT025 
     BECMG 2507/2509 32010KT FEW030 
     BECMG 2518/2520 33005KT SCT025 
     TEMPO 2600/2606 VRB04KT TX30/2512Z TN24/2603Z
       
LLIB 250550Z VRB02KT 9999 SCT025 25/19 Q1011
TAF LLIB 250505Z 2506/2606 VRB03KT 9999 FEW025 
     TEMPO 2506/2510 17006KT 
     BECMG 2510/2512 33014KT CAVOK 
     BECMG 2516/2519 VRB04KT 8000 SCT020 TX33/2513Z TN21/2603Z
       
LLOV 250550Z 02007KT CAVOK 25/15 Q1012
TAF LLOV 250504Z 2506/2606 32005KT CAVOK 
     BECMG 2507/2509 02012KT 
     BECMG 2518/2520 VRB04KT TX34/2512Z TN21/2603Z
       
LLSD 250550Z 23005KT 9999 SCT025 26/19 Q1010
TAF LLSD 250503Z 2506/2606 VRB03KT 9999 SCT025 
     BECMG 2507/2509 30010KT FEW030 
     BECMG 2516/2518 35006KT SCT025 
     BECMG 2519/2521 VRB04KT TX29/2511Z TN25/2603Z
       
LLBG 250550Z 21004KT 140V280 9999 SCT030 27/19 Q1010 NOSIG
TAF LLBG 250501Z 2506/2606 VRB03KT 9999 SCT025 
     BECMG 2507/2509 30010KT FEW030 
     BECMG 2515/2517 35005KT SCT025 
     BECMG 2521/2523 VRB04KT TX31/2512Z TN23/2603Z
       
TAF LLET 250504Z 2506/2606 02018KT CAVOK 
     PROB40 2510/2516 02020G30KT 
     BECMG 2518/2520 36012KT TX39/2512Z TN27/2603Z
       
LLHA 250550Z 34005KT 300V010 9999 SCT025 27/19 Q1010
TAF LLHA 250504Z 2506/2606 VRB03KT 9999 SCT025 
     BECMG 2507/2509 32010KT FEW030 
     BECMG 2518/2520 33005KT SCT025 
     TEMPO 2600/2606 VRB04KT TX30/2512Z TN24/2603Z
       
LLIB 250550Z VRB02KT 9999 SCT025 25/19 Q1011
TAF LLIB 250505Z 2506/2606 VRB03KT 9999 FEW025 
     TEMPO 2506/2510 17006KT 
     BECMG 2510/2512 33014KT CAVOK 
     BECMG 2516/2519 VRB04KT 8000 SCT020 TX33/2513Z TN21/2603Z
       
LLOV 250550Z 02007KT CAVOK 25/15 Q1012
TAF LLOV 250504Z 2506/2606 32005KT CAVOK 
     BECMG 2507/2509 02012KT 
     BECMG 2518/2520 VRB04KT TX34/2512Z TN21/2603Z
       
LLSD 250550Z 23005KT 9999 SCT025 26/19 Q1010
TAF LLSD 250503Z 2506/2606 VRB03KT 9999 SCT025 
     BECMG 2507/2509 30010KT FEW030 
     BECMG 2516/2518 35006KT SCT025 
     BECMG 2519/2521 VRB04KT TX29/2511Z TN25/2603Z